sensor_id;sensor_type;location;lat;lon;timestamp;P1;durP1;ratioP1;P2;durP2;ratioP2
35518;SDS011;21627;48.216;16.482;2022-09-01T00:00:09;4.10;;;1.70;;
35518;SDS011;21627;48.216;16.482;2022-09-01T00:02:40;4.47;;;2.03;;
35518;SDS011;21627;48.216;16.482;2022-09-01T00:05:08;3.45;;;1.92;;
35518;SDS011;21627;48.216;16.482;2022-09-01T00:07:36;3.13;;;1.75;;
35518;SDS011;21627;48.216;16.482;2022-09-01T00:10:07;3.25;;;2.00;;
35518;SDS011;21627;48.216;16.482;2022-09-01T00:12:35;12.20;;;2.13;;
35518;SDS011;21627;48.216;16.482;2022-09-01T00:15:04;4.25;;;1.98;;
35518;SDS011;21627;48.216;16.482;2022-09-01T00:17:34;3.60;;;1.88;;
35518;SDS011;21627;48.216;16.482;2022-09-01T00:20:03;3.55;;;1.88;;
35518;SDS011;21627;48.216;16.482;2022-09-01T00:22:31;7.53;;;1.95;;
35518;SDS011;21627;48.216;16.482;2022-09-01T00:24:59;1.85;;;1.58;;
35518;SDS011;21627;48.216;16.482;2022-09-01T00:27:27;3.00;;;1.90;;
35518;SDS011;21627;48.216;16.482;2022-09-01T00:29:56;3.22;;;1.95;;
35518;SDS011;21627;48.216;16.482;2022-09-01T00:32:25;4.40;;;1.92;;
35518;SDS011;21627;48.216;16.482;2022-09-01T00:34:53;3.30;;;1.70;;
35518;SDS011;21627;48.216;16.482;2022-09-01T00:37:21;6.18;;;2.15;;
35518;SDS011;21627;48.216;16.482;2022-09-01T00:39:48;3.08;;;1.90;;
35518;SDS011;21627;48.216;16.482;2022-09-01T00:42:16;4.78;;;1.92;;
35518;SDS011;21627;48.216;16.482;2022-09-01T00:44:46;3.72;;;1.98;;
35518;SDS011;21627;48.216;16.482;2022-09-01T00:47:18;3.08;;;1.92;;
35518;SDS011;21627;48.216;16.482;2022-09-01T00:49:47;3.40;;;1.90;;
35518;SDS011;21627;48.216;16.482;2022-09-01T00:52:21;3.22;;;1.77;;
35518;SDS011;21627;48.216;16.482;2022-09-01T00:54:57;4.32;;;1.92;;
35518;SDS011;21627;48.216;16.482;2022-09-01T00:57:30;3.00;;;1.73;;
35518;SDS011;21627;48.216;16.482;2022-09-01T00:59:59;6.50;;;2.00;;
35518;SDS011;21627;48.216;16.482;2022-09-01T01:02:46;4.13;;;1.77;;
35518;SDS011;21627;48.216;16.482;2022-09-01T01:05:14;3.55;;;2.03;;
35518;SDS011;21627;48.216;16.482;2022-09-01T01:07:42;6.30;;;1.95;;
35518;SDS011;21627;48.216;16.482;2022-09-01T01:10:17;5.07;;;2.10;;
35518;SDS011;21627;48.216;16.482;2022-09-01T01:12:48;3.75;;;1.73;;
35518;SDS011;21627;48.216;16.482;2022-09-01T01:15:17;3.13;;;1.65;;
35518;SDS011;21627;48.216;16.482;2022-09-01T01:17:51;3.30;;;2.13;;
35518;SDS011;21627;48.216;16.482;2022-09-01T01:20:19;3.95;;;1.90;;
35518;SDS011;21627;48.216;16.482;2022-09-01T01:28:43;3.17;;;1.90;;
35518;SDS011;21627;48.216;16.482;2022-09-01T01:31:15;3.63;;;2.05;;
35518;SDS011;21627;48.216;16.482;2022-09-01T01:33:47;2.92;;;1.98;;
35518;SDS011;21627;48.216;16.482;2022-09-01T01:36:20;8.05;;;2.05;;
35518;SDS011;21627;48.216;16.482;2022-09-01T01:38:58;4.55;;;2.00;;
35518;SDS011;21627;48.216;16.482;2022-09-01T01:41:48;3.63;;;2.00;;
35518;SDS011;21627;48.216;16.482;2022-09-01T01:44:17;3.40;;;1.92;;
35518;SDS011;21627;48.216;16.482;2022-09-01T01:46:51;4.13;;;2.00;;
35518;SDS011;21627;48.216;16.482;2022-09-01T01:49:21;4.00;;;1.80;;
35518;SDS011;21627;48.216;16.482;2022-09-01T01:51:54;3.75;;;2.00;;
35518;SDS011;21627;48.216;16.482;2022-09-01T01:54:23;3.50;;;1.98;;
35518;SDS011;21627;48.216;16.482;2022-09-01T01:57:00;8.82;;;2.13;;
35518;SDS011;21627;48.216;16.482;2022-09-01T01:59:30;4.20;;;1.90;;
35518;SDS011;21627;48.216;16.482;2022-09-01T02:01:58;2.22;;;1.70;;
35518;SDS011;21627;48.216;16.482;2022-09-01T02:04:27;4.30;;;2.10;;
35518;SDS011;21627;48.216;16.482;2022-09-01T02:06:59;6.28;;;2.10;;
35518;SDS011;21627;48.216;16.482;2022-09-01T02:09:30;4.28;;;2.17;;
35518;SDS011;21627;48.216;16.482;2022-09-01T02:11:58;5.93;;;1.75;;
35518;SDS011;21627;48.216;16.482;2022-09-01T02:14:25;3.67;;;2.05;;
35518;SDS011;21627;48.216;16.482;2022-09-01T02:16:52;2.28;;;1.63;;
35518;SDS011;21627;48.216;16.482;2022-09-01T02:19:21;4.90;;;1.50;;
35518;SDS011;21627;48.216;16.482;2022-09-01T02:21:48;5.55;;;2.13;;
35518;SDS011;21627;48.216;16.482;2022-09-01T02:24:19;3.22;;;1.70;;
35518;SDS011;21627;48.216;16.482;2022-09-01T02:26:49;2.50;;;1.65;;
35518;SDS011;21627;48.216;16.482;2022-09-01T02:29:18;6.30;;;2.03;;
35518;SDS011;21627;48.216;16.482;2022-09-01T02:31:52;5.80;;;1.70;;
35518;SDS011;21627;48.216;16.482;2022-09-01T02:34:21;3.70;;;1.77;;
35518;SDS011;21627;48.216;16.482;2022-09-01T02:36:53;2.50;;;1.40;;
35518;SDS011;21627;48.216;16.482;2022-09-01T02:39:26;2.55;;;1.40;;
35518;SDS011;21627;48.216;16.482;2022-09-01T02:41:59;6.60;;;1.83;;
35518;SDS011;21627;48.216;16.482;2022-09-01T02:44:32;6.32;;;1.58;;
35518;SDS011;21627;48.216;16.482;2022-09-01T02:47:05;4.68;;;1.85;;
35518;SDS011;21627;48.216;16.482;2022-09-01T02:49:34;3.03;;;1.55;;
35518;SDS011;21627;48.216;16.482;2022-09-01T02:52:02;3.70;;;1.52;;
35518;SDS011;21627;48.216;16.482;2022-09-01T02:54:31;3.13;;;1.58;;
35518;SDS011;21627;48.216;16.482;2022-09-01T02:56:59;3.80;;;1.77;;
35518;SDS011;21627;48.216;16.482;2022-09-01T02:59:27;4.20;;;1.75;;
35518;SDS011;21627;48.216;16.482;2022-09-01T03:01:56;2.85;;;1.52;;
35518;SDS011;21627;48.216;16.482;2022-09-01T03:04:23;5.43;;;1.88;;
35518;SDS011;21627;48.216;16.482;2022-09-01T03:06:52;3.38;;;1.83;;
35518;SDS011;21627;48.216;16.482;2022-09-01T03:09:20;6.13;;;1.67;;
35518;SDS011;21627;48.216;16.482;2022-09-01T03:11:50;2.20;;;1.38;;
35518;SDS011;21627;48.216;16.482;2022-09-01T03:14:19;3.53;;;1.73;;
35518;SDS011;21627;48.216;16.482;2022-09-01T03:16:47;3.58;;;1.80;;
35518;SDS011;21627;48.216;16.482;2022-09-01T03:19:18;4.60;;;2.03;;
35518;SDS011;21627;48.216;16.482;2022-09-01T03:21:48;4.68;;;1.90;;
35518;SDS011;21627;48.216;16.482;2022-09-01T03:24:16;3.70;;;1.67;;
35518;SDS011;21627;48.216;16.482;2022-09-01T03:26:44;2.60;;;1.70;;
35518;SDS011;21627;48.216;16.482;2022-09-01T03:29:16;3.42;;;1.65;;
35518;SDS011;21627;48.216;16.482;2022-09-01T03:31:44;5.50;;;1.80;;
35518;SDS011;21627;48.216;16.482;2022-09-01T03:34:12;3.25;;;1.98;;
35518;SDS011;21627;48.216;16.482;2022-09-01T03:36:41;2.33;;;1.35;;
35518;SDS011;21627;48.216;16.482;2022-09-01T03:39:16;2.53;;;1.27;;
35518;SDS011;21627;48.216;16.482;2022-09-01T03:41:48;3.40;;;1.50;;
35518;SDS011;21627;48.216;16.482;2022-09-01T03:44:15;3.92;;;2.00;;
35518;SDS011;21627;48.216;16.482;2022-09-01T03:46:45;2.38;;;1.52;;
35518;SDS011;21627;48.216;16.482;2022-09-01T03:49:12;2.33;;;1.60;;
35518;SDS011;21627;48.216;16.482;2022-09-01T03:51:42;3.00;;;1.63;;
35518;SDS011;21627;48.216;16.482;2022-09-01T03:54:11;3.70;;;1.80;;
35518;SDS011;21627;48.216;16.482;2022-09-01T03:56:41;2.63;;;1.45;;
35518;SDS011;21627;48.216;16.482;2022-09-01T03:59:10;8.18;;;1.95;;
35518;SDS011;21627;48.216;16.482;2022-09-01T04:01:43;3.65;;;1.85;;
35518;SDS011;21627;48.216;16.482;2022-09-01T04:04:11;10.40;;;2.45;;
35518;SDS011;21627;48.216;16.482;2022-09-01T04:06:42;4.82;;;1.73;;
35518;SDS011;21627;48.216;16.482;2022-09-01T04:09:11;3.95;;;2.05;;
35518;SDS011;21627;48.216;16.482;2022-09-01T04:11:39;17.77;;;3.47;;
35518;SDS011;21627;48.216;16.482;2022-09-01T04:14:14;11.48;;;2.25;;
35518;SDS011;21627;48.216;16.482;2022-09-01T04:16:42;14.05;;;2.95;;
35518;SDS011;21627;48.216;16.482;2022-09-01T04:19:28;8.27;;;2.15;;
35518;SDS011;21627;48.216;16.482;2022-09-01T04:22:03;7.65;;;2.40;;
35518;SDS011;21627;48.216;16.482;2022-09-01T04:24:33;7.47;;;3.03;;
35518;SDS011;21627;48.216;16.482;2022-09-01T04:27:04;12.38;;;2.72;;
35518;SDS011;21627;48.216;16.482;2022-09-01T04:29:32;8.73;;;1.80;;
35518;SDS011;21627;48.216;16.482;2022-09-01T04:32:05;4.93;;;2.20;;
35518;SDS011;21627;48.216;16.482;2022-09-01T04:34:38;3.10;;;1.33;;
35518;SDS011;21627;48.216;16.482;2022-09-01T04:37:08;2.58;;;1.50;;
35518;SDS011;21627;48.216;16.482;2022-09-01T04:39:40;4.07;;;1.67;;
35518;SDS011;21627;48.216;16.482;2022-09-01T04:42:19;5.43;;;1.92;;
35518;SDS011;21627;48.216;16.482;2022-09-01T04:44:50;2.95;;;1.65;;
35518;SDS011;21627;48.216;16.482;2022-09-01T04:47:20;2.70;;;1.52;;
35518;SDS011;21627;48.216;16.482;2022-09-01T04:50:03;5.13;;;1.50;;
35518;SDS011;21627;48.216;16.482;2022-09-01T04:52:40;2.92;;;1.70;;
35518;SDS011;21627;48.216;16.482;2022-09-01T04:55:09;3.88;;;1.63;;
35518;SDS011;21627;48.216;16.482;2022-09-01T04:57:47;3.88;;;1.52;;
35518;SDS011;21627;48.216;16.482;2022-09-01T05:00:16;4.57;;;1.77;;
35518;SDS011;21627;48.216;16.482;2022-09-01T05:02:50;3.45;;;1.48;;
35518;SDS011;21627;48.216;16.482;2022-09-01T05:05:41;4.32;;;1.40;;
35518;SDS011;21627;48.216;16.482;2022-09-01T05:08:18;7.03;;;1.48;;
35518;SDS011;21627;48.216;16.482;2022-09-01T05:10:51;2.92;;;1.20;;
35518;SDS011;21627;48.216;16.482;2022-09-01T05:13:21;5.43;;;1.85;;
35518;SDS011;21627;48.216;16.482;2022-09-01T05:15:58;9.20;;;1.90;;
35518;SDS011;21627;48.216;16.482;2022-09-01T05:18:29;5.20;;;1.77;;
35518;SDS011;21627;48.216;16.482;2022-09-01T05:20:57;2.60;;;1.77;;
35518;SDS011;21627;48.216;16.482;2022-09-01T05:23:37;6.35;;;1.30;;
35518;SDS011;21627;48.216;16.482;2022-09-01T05:26:15;4.20;;;1.30;;
35518;SDS011;21627;48.216;16.482;2022-09-01T05:28:54;4.72;;;1.33;;
35518;SDS011;21627;48.216;16.482;2022-09-01T05:31:25;3.63;;;1.10;;
35518;SDS011;21627;48.216;16.482;2022-09-01T05:34:00;1.80;;;1.20;;
35518;SDS011;21627;48.216;16.482;2022-09-01T05:36:28;9.55;;;1.70;;
35518;SDS011;21627;48.216;16.482;2022-09-01T05:38:59;5.63;;;1.63;;
35518;SDS011;21627;48.216;16.482;2022-09-01T05:41:27;5.57;;;1.50;;
35518;SDS011;21627;48.216;16.482;2022-09-01T05:43:55;2.35;;;1.38;;
35518;SDS011;21627;48.216;16.482;2022-09-01T05:46:26;4.03;;;1.45;;
35518;SDS011;21627;48.216;16.482;2022-09-01T05:48:54;4.80;;;1.60;;
35518;SDS011;21627;48.216;16.482;2022-09-01T05:51:23;3.53;;;1.50;;
35518;SDS011;21627;48.216;16.482;2022-09-01T05:54:15;1.92;;;1.20;;
35518;SDS011;21627;48.216;16.482;2022-09-01T05:56:44;3.97;;;1.52;;
35518;SDS011;21627;48.216;16.482;2022-09-01T05:59:12;10.30;;;1.48;;
35518;SDS011;21627;48.216;16.482;2022-09-01T06:01:49;8.93;;;1.77;;
35518;SDS011;21627;48.216;16.482;2022-09-01T06:04:18;2.97;;;1.67;;
35518;SDS011;21627;48.216;16.482;2022-09-01T06:06:47;5.80;;;1.33;;
35518;SDS011;21627;48.216;16.482;2022-09-01T06:09:36;4.63;;;1.42;;
35518;SDS011;21627;48.216;16.482;2022-09-01T06:12:10;4.65;;;1.25;;
35518;SDS011;21627;48.216;16.482;2022-09-01T06:14:52;3.53;;;1.60;;
35518;SDS011;21627;48.216;16.482;2022-09-01T06:17:22;5.82;;;1.17;;
35518;SDS011;21627;48.216;16.482;2022-09-01T06:19:56;5.72;;;1.60;;
35518;SDS011;21627;48.216;16.482;2022-09-01T06:22:25;6.15;;;1.83;;
35518;SDS011;21627;48.216;16.482;2022-09-01T06:24:54;8.63;;;1.55;;
35518;SDS011;21627;48.216;16.482;2022-09-01T06:27:27;4.65;;;1.60;;
35518;SDS011;21627;48.216;16.482;2022-09-01T06:29:55;3.55;;;1.08;;
35518;SDS011;21627;48.216;16.482;2022-09-01T06:32:23;3.50;;;1.50;;
35518;SDS011;21627;48.216;16.482;2022-09-01T06:34:52;3.40;;;1.60;;
35518;SDS011;21627;48.216;16.482;2022-09-01T06:37:23;3.72;;;1.83;;
35518;SDS011;21627;48.216;16.482;2022-09-01T06:39:54;3.67;;;1.80;;
35518;SDS011;21627;48.216;16.482;2022-09-01T06:42:23;3.03;;;1.25;;
35518;SDS011;21627;48.216;16.482;2022-09-01T06:44:50;4.80;;;1.10;;
35518;SDS011;21627;48.216;16.482;2022-09-01T06:47:18;2.53;;;1.30;;
35518;SDS011;21627;48.216;16.482;2022-09-01T06:49:45;4.22;;;1.48;;
35518;SDS011;21627;48.216;16.482;2022-09-01T06:52:12;3.30;;;1.20;;
35518;SDS011;21627;48.216;16.482;2022-09-01T06:54:41;6.57;;;2.35;;
35518;SDS011;21627;48.216;16.482;2022-09-01T06:57:10;7.10;;;1.30;;
35518;SDS011;21627;48.216;16.482;2022-09-01T06:59:57;7.30;;;1.38;;
35518;SDS011;21627;48.216;16.482;2022-09-01T07:02:24;5.40;;;1.27;;
35518;SDS011;21627;48.216;16.482;2022-09-01T07:04:53;7.80;;;1.45;;
35518;SDS011;21627;48.216;16.482;2022-09-01T07:07:21;3.17;;;1.40;;
35518;SDS011;21627;48.216;16.482;2022-09-01T07:10:08;7.05;;;1.05;;
35518;SDS011;21627;48.216;16.482;2022-09-01T07:12:49;1.77;;;1.10;;
35518;SDS011;21627;48.216;16.482;2022-09-01T07:15:39;3.88;;;1.20;;
35518;SDS011;21627;48.216;16.482;2022-09-01T07:18:28;3.70;;;1.30;;
35518;SDS011;21627;48.216;16.482;2022-09-01T07:20:56;7.75;;;1.45;;
35518;SDS011;21627;48.216;16.482;2022-09-01T07:23:33;2.67;;;1.27;;
35518;SDS011;21627;48.216;16.482;2022-09-01T07:26:24;2.90;;;1.40;;
35518;SDS011;21627;48.216;16.482;2022-09-01T07:28:52;1.58;;;0.93;;
35518;SDS011;21627;48.216;16.482;2022-09-01T07:31:28;2.00;;;1.27;;
35518;SDS011;21627;48.216;16.482;2022-09-01T07:34:29;9.30;;;1.30;;
35518;SDS011;21627;48.216;16.482;2022-09-01T07:37:06;4.32;;;1.00;;
35518;SDS011;21627;48.216;16.482;2022-09-01T07:39:53;3.75;;;1.20;;
35518;SDS011;21627;48.216;16.482;2022-09-01T07:42:44;6.28;;;1.58;;
35518;SDS011;21627;48.216;16.482;2022-09-01T07:45:36;5.32;;;1.05;;
35518;SDS011;21627;48.216;16.482;2022-09-01T07:48:17;4.28;;;1.08;;
35518;SDS011;21627;48.216;16.482;2022-09-01T07:51:11;2.42;;;1.17;;
35518;SDS011;21627;48.216;16.482;2022-09-01T07:54:03;7.85;;;1.25;;
35518;SDS011;21627;48.216;16.482;2022-09-01T07:56:31;3.25;;;1.42;;
35518;SDS011;21627;48.216;16.482;2022-09-01T07:59:04;3.10;;;0.85;;
35518;SDS011;21627;48.216;16.482;2022-09-01T08:01:34;1.40;;;0.80;;
35518;SDS011;21627;48.216;16.482;2022-09-01T08:04:01;6.30;;;1.30;;
35518;SDS011;21627;48.216;16.482;2022-09-01T08:06:29;8.23;;;1.25;;
35518;SDS011;21627;48.216;16.482;2022-09-01T08:09:07;9.65;;;1.45;;
35518;SDS011;21627;48.216;16.482;2022-09-01T08:11:40;2.85;;;1.10;;
35518;SDS011;21627;48.216;16.482;2022-09-01T08:14:28;2.25;;;1.10;;
35518;SDS011;21627;48.216;16.482;2022-09-01T08:17:02;6.00;;;1.30;;
35518;SDS011;21627;48.216;16.482;2022-09-01T08:19:53;2.22;;;1.05;;
35518;SDS011;21627;48.216;16.482;2022-09-01T08:22:21;2.97;;;1.13;;
35518;SDS011;21627;48.216;16.482;2022-09-01T08:24:51;6.30;;;1.52;;
35518;SDS011;21627;48.216;16.482;2022-09-01T08:27:22;2.30;;;0.85;;
35518;SDS011;21627;48.216;16.482;2022-09-01T08:29:49;2.50;;;0.95;;
35518;SDS011;21627;48.216;16.482;2022-09-01T08:32:16;2.03;;;1.00;;
35518;SDS011;21627;48.216;16.482;2022-09-01T08:34:46;4.60;;;1.63;;
35518;SDS011;21627;48.216;16.482;2022-09-01T08:37:13;5.80;;;1.33;;
35518;SDS011;21627;48.216;16.482;2022-09-01T08:39:40;2.83;;;1.08;;
35518;SDS011;21627;48.216;16.482;2022-09-01T08:42:21;7.68;;;1.27;;
35518;SDS011;21627;48.216;16.482;2022-09-01T08:48:45;7.93;;;1.02;;
35518;SDS011;21627;48.216;16.482;2022-09-01T08:51:39;2.65;;;0.85;;
35518;SDS011;21627;48.216;16.482;2022-09-01T08:57:19;1.85;;;0.93;;
35518;SDS011;21627;48.216;16.482;2022-09-01T08:59:56;2.05;;;0.90;;
35518;SDS011;21627;48.216;16.482;2022-09-01T09:02:26;4.32;;;0.93;;
35518;SDS011;21627;48.216;16.482;2022-09-01T09:05:07;1.85;;;0.80;;
35518;SDS011;21627;48.216;16.482;2022-09-01T09:16:38;7.15;;;1.33;;
35518;SDS011;21627;48.216;16.482;2022-09-01T09:22:10;5.13;;;0.82;;
35518;SDS011;21627;48.216;16.482;2022-09-01T09:24:51;5.38;;;1.17;;
35518;SDS011;21627;48.216;16.482;2022-09-01T09:27:33;3.45;;;1.08;;
35518;SDS011;21627;48.216;16.482;2022-09-01T09:30:07;4.43;;;0.82;;
35518;SDS011;21627;48.216;16.482;2022-09-01T09:35:54;9.98;;;1.52;;
35518;SDS011;21627;48.216;16.482;2022-09-01T09:38:40;29.27;;;2.78;;
35518;SDS011;21627;48.216;16.482;2022-09-01T09:54:36;3.45;;;0.68;;
35518;SDS011;21627;48.216;16.482;2022-09-01T09:57:14;2.40;;;0.65;;
35518;SDS011;21627;48.216;16.482;2022-09-01T09:59:45;5.40;;;0.60;;
35518;SDS011;21627;48.216;16.482;2022-09-01T10:05:00;3.55;;;0.77;;
35518;SDS011;21627;48.216;16.482;2022-09-01T10:07:51;2.17;;;0.82;;
35518;SDS011;21627;48.216;16.482;2022-09-01T10:10:41;3.17;;;0.90;;
35518;SDS011;21627;48.216;16.482;2022-09-01T10:13:24;1.50;;;0.65;;
35518;SDS011;21627;48.216;16.482;2022-09-01T10:16:02;2.60;;;0.68;;
35518;SDS011;21627;48.216;16.482;2022-09-01T10:18:47;3.20;;;0.90;;
35518;SDS011;21627;48.216;16.482;2022-09-01T10:21:21;5.28;;;0.88;;
35518;SDS011;21627;48.216;16.482;2022-09-01T10:23:54;2.10;;;0.80;;
35518;SDS011;21627;48.216;16.482;2022-09-01T10:26:46;1.42;;;0.60;;
35518;SDS011;21627;48.216;16.482;2022-09-01T10:29:24;8.95;;;0.77;;
35518;SDS011;21627;48.216;16.482;2022-09-01T10:32:48;4.57;;;0.88;;
35518;SDS011;21627;48.216;16.482;2022-09-01T10:35:45;1.65;;;0.52;;
35518;SDS011;21627;48.216;16.482;2022-09-01T10:38:18;1.95;;;0.93;;
35518;SDS011;21627;48.216;16.482;2022-09-01T10:40:59;3.63;;;1.00;;
35518;SDS011;21627;48.216;16.482;2022-09-01T10:48:52;2.83;;;0.77;;
35518;SDS011;21627;48.216;16.482;2022-09-01T10:54:03;1.70;;;0.70;;
35518;SDS011;21627;48.216;16.482;2022-09-01T10:56:37;2.97;;;0.90;;
35518;SDS011;21627;48.216;16.482;2022-09-01T11:02:13;0.82;;;0.60;;
35518;SDS011;21627;48.216;16.482;2022-09-01T11:07:31;1.75;;;0.95;;
35518;SDS011;21627;48.216;16.482;2022-09-01T11:13:07;4.32;;;0.90;;
35518;SDS011;21627;48.216;16.482;2022-09-01T11:22:02;4.90;;;0.60;;
35518;SDS011;21627;48.216;16.482;2022-09-01T11:27:08;3.28;;;0.93;;
35518;SDS011;21627;48.216;16.482;2022-09-01T11:29:53;1.15;;;0.70;;
35518;SDS011;21627;48.216;16.482;2022-09-01T11:32:36;2.58;;;0.88;;
35518;SDS011;21627;48.216;16.482;2022-09-01T11:35:14;3.33;;;0.70;;
35518;SDS011;21627;48.216;16.482;2022-09-01T11:37:48;1.40;;;0.52;;
35518;SDS011;21627;48.216;16.482;2022-09-01T11:40:31;3.83;;;1.00;;
35518;SDS011;21627;48.216;16.482;2022-09-01T11:43:03;7.88;;;0.82;;
35518;SDS011;21627;48.216;16.482;2022-09-01T11:46:22;2.60;;;1.10;;
35518;SDS011;21627;48.216;16.482;2022-09-01T11:48:46;2.67;;;0.98;;
35518;SDS011;21627;48.216;16.482;2022-09-01T11:51:17;1.52;;;0.82;;
35518;SDS011;21627;48.216;16.482;2022-09-01T11:53:46;4.53;;;0.80;;
35518;SDS011;21627;48.216;16.482;2022-09-01T11:56:23;2.15;;;0.80;;
35518;SDS011;21627;48.216;16.482;2022-09-01T11:58:56;3.25;;;0.90;;
35518;SDS011;21627;48.216;16.482;2022-09-01T12:04:22;2.75;;;1.10;;
35518;SDS011;21627;48.216;16.482;2022-09-01T12:06:58;3.92;;;0.80;;
35518;SDS011;21627;48.216;16.482;2022-09-01T12:09:43;9.85;;;1.10;;
35518;SDS011;21627;48.216;16.482;2022-09-01T12:12:30;3.83;;;0.90;;
35518;SDS011;21627;48.216;16.482;2022-09-01T12:15:05;4.88;;;0.80;;
35518;SDS011;21627;48.216;16.482;2022-09-01T12:17:44;2.45;;;1.02;;
35518;SDS011;21627;48.216;16.482;2022-09-01T12:22:58;2.10;;;0.70;;
35518;SDS011;21627;48.216;16.482;2022-09-01T12:25:31;1.98;;;0.70;;
35518;SDS011;21627;48.216;16.482;2022-09-01T12:28:01;5.50;;;0.70;;
35518;SDS011;21627;48.216;16.482;2022-09-01T12:30:34;1.55;;;0.60;;
35518;SDS011;21627;48.216;16.482;2022-09-01T12:33:08;1.65;;;0.65;;
35518;SDS011;21627;48.216;16.482;2022-09-01T12:36:40;3.10;;;0.70;;
35518;SDS011;21627;48.216;16.482;2022-09-01T12:38:51;0.85;;;0.50;;
35518;SDS011;21627;48.216;16.482;2022-09-01T12:41:37;3.10;;;0.73;;
35518;SDS011;21627;48.216;16.482;2022-09-01T12:47:04;3.90;;;0.60;;
35518;SDS011;21627;48.216;16.482;2022-09-01T12:49:40;3.67;;;0.60;;
35518;SDS011;21627;48.216;16.482;2022-09-01T12:57:32;3.22;;;0.63;;
35518;SDS011;21627;48.216;16.482;2022-09-01T13:00:07;1.13;;;0.55;;
35518;SDS011;21627;48.216;16.482;2022-09-01T13:07:58;2.25;;;0.85;;
35518;SDS011;21627;48.216;16.482;2022-09-01T13:10:32;4.70;;;0.63;;
35518;SDS011;21627;48.216;16.482;2022-09-01T13:15:32;4.97;;;0.80;;
35518;SDS011;21627;48.216;16.482;2022-09-01T13:18:02;1.83;;;0.63;;
35518;SDS011;21627;48.216;16.482;2022-09-01T13:20:30;4.13;;;1.02;;
35518;SDS011;21627;48.216;16.482;2022-09-01T13:23:01;2.38;;;0.77;;
35518;SDS011;21627;48.216;16.482;2022-09-01T13:25:31;1.85;;;0.65;;
35518;SDS011;21627;48.216;16.482;2022-09-01T13:27:59;1.60;;;0.85;;
35518;SDS011;21627;48.216;16.482;2022-09-01T13:30:28;2.42;;;0.75;;
35518;SDS011;21627;48.216;16.482;2022-09-01T13:32:55;4.57;;;0.80;;
35518;SDS011;21627;48.216;16.482;2022-09-01T13:35:43;2.47;;;0.60;;
35518;SDS011;21627;48.216;16.482;2022-09-01T13:38:10;2.97;;;0.57;;
35518;SDS011;21627;48.216;16.482;2022-09-01T13:40:41;1.13;;;0.50;;
35518;SDS011;21627;48.216;16.482;2022-09-01T13:43:13;4.00;;;0.70;;
35518;SDS011;21627;48.216;16.482;2022-09-01T13:45:45;2.45;;;0.65;;
35518;SDS011;21627;48.216;16.482;2022-09-01T13:48:13;2.70;;;0.57;;
35518;SDS011;21627;48.216;16.482;2022-09-01T13:50:43;2.95;;;0.60;;
35518;SDS011;21627;48.216;16.482;2022-09-01T13:53:35;2.03;;;0.63;;
35518;SDS011;21627;48.216;16.482;2022-09-01T13:56:02;3.33;;;0.60;;
35518;SDS011;21627;48.216;16.482;2022-09-01T13:58:31;6.07;;;0.80;;
35518;SDS011;21627;48.216;16.482;2022-09-01T14:00:58;0.80;;;0.50;;
35518;SDS011;21627;48.216;16.482;2022-09-01T14:03:26;2.40;;;0.70;;
35518;SDS011;21627;48.216;16.482;2022-09-01T14:06:00;0.55;;;0.50;;
35518;SDS011;21627;48.216;16.482;2022-09-01T14:08:28;4.30;;;0.80;;
35518;SDS011;21627;48.216;16.482;2022-09-01T14:10:59;3.75;;;0.88;;
35518;SDS011;21627;48.216;16.482;2022-09-01T14:13:26;2.20;;;0.63;;
35518;SDS011;21627;48.216;16.482;2022-09-01T14:15:54;1.25;;;0.60;;
35518;SDS011;21627;48.216;16.482;2022-09-01T14:18:21;1.38;;;0.40;;
35518;SDS011;21627;48.216;16.482;2022-09-01T14:21:02;3.92;;;0.43;;
35518;SDS011;21627;48.216;16.482;2022-09-01T14:23:32;8.98;;;1.55;;
35518;SDS011;21627;48.216;16.482;2022-09-01T14:26:00;25.02;;;3.53;;
35518;SDS011;21627;48.216;16.482;2022-09-01T14:28:30;2.65;;;0.65;;
35518;SDS011;21627;48.216;16.482;2022-09-01T14:30:57;6.63;;;0.73;;
35518;SDS011;21627;48.216;16.482;2022-09-01T14:33:25;1.42;;;0.60;;
35518;SDS011;21627;48.216;16.482;2022-09-01T14:35:52;8.05;;;0.63;;
35518;SDS011;21627;48.216;16.482;2022-09-01T14:38:22;3.65;;;0.60;;
35518;SDS011;21627;48.216;16.482;2022-09-01T14:40:50;1.08;;;0.68;;
35518;SDS011;21627;48.216;16.482;2022-09-01T14:43:21;1.00;;;0.40;;
35518;SDS011;21627;48.216;16.482;2022-09-01T14:45:48;1.88;;;0.68;;
35518;SDS011;21627;48.216;16.482;2022-09-01T14:48:19;2.10;;;0.60;;
35518;SDS011;21627;48.216;16.482;2022-09-01T14:50:47;2.78;;;0.47;;
35518;SDS011;21627;48.216;16.482;2022-09-01T14:53:18;9.50;;;0.60;;
35518;SDS011;21627;48.216;16.482;2022-09-01T14:55:48;2.58;;;0.55;;
35518;SDS011;21627;48.216;16.482;2022-09-01T14:58:21;2.30;;;0.60;;
35518;SDS011;21627;48.216;16.482;2022-09-01T15:00:49;1.42;;;0.60;;
35518;SDS011;21627;48.216;16.482;2022-09-01T15:03:17;1.52;;;0.65;;
35518;SDS011;21627;48.216;16.482;2022-09-01T15:05:52;3.47;;;0.50;;
35518;SDS011;21627;48.216;16.482;2022-09-01T15:08:19;1.88;;;0.75;;
35518;SDS011;21627;48.216;16.482;2022-09-01T15:10:48;5.07;;;0.88;;
35518;SDS011;21627;48.216;16.482;2022-09-01T15:13:16;0.40;;;0.30;;
35518;SDS011;21627;48.216;16.482;2022-09-01T15:15:44;2.85;;;0.90;;
35518;SDS011;21627;48.216;16.482;2022-09-01T15:18:14;1.08;;;0.50;;
35518;SDS011;21627;48.216;16.482;2022-09-01T15:20:42;2.15;;;0.52;;
35518;SDS011;21627;48.216;16.482;2022-09-01T15:23:22;2.50;;;0.57;;
35518;SDS011;21627;48.216;16.482;2022-09-01T15:25:55;2.90;;;0.70;;
35518;SDS011;21627;48.216;16.482;2022-09-01T15:28:24;3.88;;;0.63;;
35518;SDS011;21627;48.216;16.482;2022-09-01T15:30:52;3.35;;;0.50;;
35518;SDS011;21627;48.216;16.482;2022-09-01T15:33:22;4.43;;;0.60;;
35518;SDS011;21627;48.216;16.482;2022-09-01T15:35:52;3.35;;;0.55;;
35518;SDS011;21627;48.216;16.482;2022-09-01T15:38:20;1.90;;;0.50;;
35518;SDS011;21627;48.216;16.482;2022-09-01T15:40:53;2.55;;;0.60;;
35518;SDS011;21627;48.216;16.482;2022-09-01T15:43:23;2.17;;;0.30;;
35518;SDS011;21627;48.216;16.482;2022-09-01T15:45:51;1.13;;;0.50;;
35518;SDS011;21627;48.216;16.482;2022-09-01T15:48:22;5.93;;;0.70;;
35518;SDS011;21627;48.216;16.482;2022-09-01T15:50:51;1.25;;;0.57;;
35518;SDS011;21627;48.216;16.482;2022-09-01T15:53:19;1.38;;;0.65;;
35518;SDS011;21627;48.216;16.482;2022-09-01T15:55:47;2.97;;;0.60;;
35518;SDS011;21627;48.216;16.482;2022-09-01T15:58:16;1.23;;;0.60;;
35518;SDS011;21627;48.216;16.482;2022-09-01T16:00:45;2.65;;;0.82;;
35518;SDS011;21627;48.216;16.482;2022-09-01T16:03:12;4.75;;;0.80;;
35518;SDS011;21627;48.216;16.482;2022-09-01T16:05:39;12.73;;;1.25;;
35518;SDS011;21627;48.216;16.482;2022-09-01T16:08:07;4.38;;;0.90;;
35518;SDS011;21627;48.216;16.482;2022-09-01T16:10:36;15.32;;;1.58;;
35518;SDS011;21627;48.216;16.482;2022-09-01T16:13:05;17.40;;;3.30;;
35518;SDS011;21627;48.216;16.482;2022-09-01T16:15:33;2.88;;;0.90;;
35518;SDS011;21627;48.216;16.482;2022-09-01T16:21:21;31.33;;;3.63;;
35518;SDS011;21627;48.216;16.482;2022-09-01T16:24:08;44.20;;;5.40;;
35518;SDS011;21627;48.216;16.482;2022-09-01T16:26:38;9.30;;;2.33;;
35518;SDS011;21627;48.216;16.482;2022-09-01T16:29:56;5.55;;;1.20;;
35518;SDS011;21627;48.216;16.482;2022-09-01T16:32:11;2.78;;;0.85;;
35518;SDS011;21627;48.216;16.482;2022-09-01T16:34:42;1.67;;;0.50;;
35518;SDS011;21627;48.216;16.482;2022-09-01T16:37:28;2.45;;;0.73;;
35518;SDS011;21627;48.216;16.482;2022-09-01T16:49:51;2.10;;;0.60;;
35518;SDS011;21627;48.216;16.482;2022-09-01T17:01:40;2.83;;;0.70;;